createdAt,value
2018-01-02T00:00:48.711Z,88.60
2018-01-02T00:03:18.597Z,88.25
2018-01-02T00:05:48.415Z,88.25
2018-01-02T00:08:18.251Z,88.38
2018-01-02T00:10:48.074Z,88.98
2018-01-02T00:13:17.902Z,88.76
2018-01-02T00:15:47.843Z,89.22
2018-01-02T00:18:19.340Z,89.61
2018-01-02T00:20:49.167Z,89.79
2018-01-02T00:23:19.001Z,89.25
2018-01-02T00:25:49.766Z,89.05
2018-01-02T00:28:19.597Z,88.61
2018-01-02T00:30:49.473Z,88.69
2018-01-02T00:33:19.502Z,88.77
2018-01-02T00:35:49.417Z,88.84
2018-01-02T00:38:19.371Z,88.80
2018-01-02T00:40:49.252Z,89.29
2018-01-02T00:43:19.141Z,89.06
2018-01-02T00:45:48.734Z,88.15
2018-01-02T00:48:18.801Z,88.20
2018-01-02T00:50:48.928Z,88.51
2018-01-02T00:53:18.818Z,87.70
2018-01-02T00:55:48.679Z,87.14
2018-01-02T00:58:18.571Z,86.45
2018-01-02T01:00:48.373Z,87.08
2018-01-02T01:03:18.266Z,87.33
2018-01-02T01:05:48.153Z,87.99
2018-01-02T01:08:18.092Z,88.49
2018-01-02T01:10:48.008Z,88.73
2018-01-02T01:13:17.868Z,88.97
2018-01-02T01:15:47.736Z,88.75
2018-01-02T01:18:17.826Z,88.55
2018-01-02T01:20:48.500Z,88.54
2018-01-02T01:23:18.362Z,87.91
2018-01-02T01:25:48.176Z,88.24
2018-01-02T01:28:18.114Z,87.88
2018-01-02T01:30:48.021Z,87.27
2018-01-02T01:33:17.919Z,87.12
2018-01-02T01:35:47.836Z,87.58
2018-01-02T01:38:17.712Z,88.17
2018-01-02T01:40:47.561Z,89.22
2018-01-02T01:43:18.140Z,89.83
2018-01-02T01:45:48.032Z,90.53
2018-01-02T01:48:17.904Z,91.58
2018-01-02T01:50:47.729Z,92.03
2018-01-02T01:53:17.531Z,92.31
2018-01-02T01:55:47.451Z,91.94
2018-01-02T01:58:17.685Z,92.63
2018-01-02T02:00:47.544Z,93.29
2018-01-02T02:03:17.424Z,93.64
2018-01-02T02:05:47.305Z,94.02
2018-01-02T02:08:17.399Z,94.24
2018-01-02T02:10:47.307Z,94.49
2018-01-02T02:13:17.192Z,94.59
2018-01-02T02:15:47.006Z,94.65
2018-01-02T02:18:17.283Z,94.57
2018-01-02T02:20:47.361Z,94.29
2018-01-02T02:23:17.223Z,94.39
2018-01-02T02:25:47.118Z,94.33
2018-01-02T02:28:16.966Z,94.18
2018-01-02T02:30:46.873Z,94.06
2018-01-02T02:33:16.798Z,94.44
2018-01-02T02:35:46.615Z,94.71
2018-01-02T02:38:16.680Z,95.43
2018-01-02T02:40:57.584Z,95.53
2018-01-02T02:43:27.194Z,95.59
2018-01-02T02:45:57.098Z,95.42
2018-01-02T02:48:27.039Z,95.57
2018-01-02T02:50:56.901Z,96.06
2018-01-02T02:53:26.739Z,96.47
2018-01-02T02:55:56.589Z,96.78
2018-01-02T02:58:26.639Z,95.97
2018-01-02T03:00:56.292Z,95.35
2018-01-02T03:03:26.198Z,95.48
2018-01-02T03:05:56.741Z,95.23
2018-01-02T03:08:26.560Z,95.45
2018-01-02T03:10:56.465Z,95.76
2018-01-02T03:13:26.342Z,96.13
2018-01-02T03:15:56.182Z,96.27
2018-01-02T03:18:26.054Z,96.58
2018-01-02T03:20:55.945Z,96.53
2018-01-02T03:23:25.778Z,96.51
2018-01-02T03:25:56.076Z,96.69
2018-01-02T03:28:26.000Z,96.88
2018-01-02T03:30:55.812Z,97.11
2018-01-02T03:33:25.896Z,97.43
2018-01-02T03:35:55.776Z,97.45
2018-01-02T03:38:25.633Z,97.51
2018-01-02T03:40:55.493Z,97.61
2018-01-02T03:43:25.328Z,97.59
2018-01-02T03:45:55.299Z,97.49
2018-01-02T03:48:25.175Z,97.34
2018-01-02T03:50:55.031Z,97.35
2018-01-02T03:53:24.908Z,97.01
2018-01-02T03:55:54.894Z,97.14
2018-01-02T03:58:24.539Z,96.77
2018-01-02T04:00:54.454Z,97.05
2018-01-02T04:03:29.840Z,96.97
2018-01-02T04:05:59.701Z,96.84
2018-01-02T04:08:29.565Z,96.63
2018-01-02T04:10:59.507Z,96.65
2018-01-02T04:13:29.433Z,96.86
2018-01-02T04:15:59.453Z,96.81
2018-01-02T04:18:29.308Z,96.66
2018-01-02T04:20:59.269Z,96.81
2018-01-02T04:23:29.152Z,96.32
2018-01-02T04:25:58.996Z,96.32
2018-01-02T04:28:28.856Z,96.49
2018-01-02T04:30:58.670Z,96.68
2018-01-02T04:33:28.552Z,96.95
2018-01-02T04:35:58.389Z,97.66
2018-01-02T04:38:28.273Z,97.82
2018-01-02T04:40:58.076Z,97.34
2018-01-02T04:43:27.902Z,97.49
2018-01-02T04:45:57.894Z,97.65
2018-01-02T04:48:27.828Z,98.03
2018-01-02T04:50:57.683Z,98.54
2018-01-02T04:53:27.531Z,98.95
2018-01-02T04:55:57.449Z,99.35
2018-01-02T04:58:27.332Z,99.76
2018-01-02T05:00:57.381Z,100.00
2018-01-02T05:03:27.262Z,100.00
2018-01-02T05:05:57.115Z,100.00
2018-01-02T05:08:27.096Z,100.00
2018-01-02T05:10:57.571Z,100.00
2018-01-02T05:13:27.445Z,100.00
2018-01-02T05:15:57.317Z,100.00
2018-01-02T05:18:27.437Z,100.00
2018-01-02T05:20:58.006Z,100.00
2018-01-02T05:23:28.680Z,99.64
2018-01-02T05:25:58.614Z,99.13
2018-01-02T05:28:28.460Z,97.70
2018-01-02T05:30:58.351Z,96.22
2018-01-02T05:33:28.226Z,94.07
2018-01-02T05:35:58.110Z,91.38
2018-01-02T05:38:28.052Z,89.30
2018-01-02T05:40:57.885Z,87.03
2018-01-02T05:43:27.910Z,86.46
2018-01-02T05:45:58.190Z,85.58
2018-01-02T05:48:28.154Z,84.51
2018-01-02T05:50:58.745Z,83.37
2018-01-02T05:53:28.601Z,81.95
2018-01-02T05:55:58.483Z,81.40
2018-01-02T05:58:28.513Z,81.57
2018-01-02T06:00:58.953Z,81.36
2018-01-02T06:03:29.314Z,81.17
2018-01-02T06:05:59.123Z,81.14
2018-01-02T06:08:29.561Z,81.09
2018-01-02T06:10:59.599Z,80.14
2018-01-02T06:13:29.374Z,78.57
2018-01-02T06:15:59.231Z,77.63
2018-01-02T06:18:28.784Z,76.06
2018-01-02T06:20:58.586Z,75.25
2018-01-02T06:23:28.364Z,75.76
2018-01-02T06:25:58.545Z,75.37
2018-01-02T06:28:28.364Z,73.35
2018-01-02T06:30:58.272Z,72.92
2018-01-02T06:33:28.068Z,72.80
2018-01-02T06:35:57.896Z,75.80
2018-01-02T06:38:27.671Z,75.71
2018-01-02T06:40:57.559Z,69.42
2018-01-02T06:43:27.511Z,69.49
2018-01-02T06:45:57.437Z,69.81
2018-01-02T06:48:27.289Z,70.77
2018-01-02T06:50:57.062Z,71.31
2018-01-02T06:53:26.840Z,70.40
2018-01-02T06:55:56.714Z,71.14
2018-01-02T06:58:26.491Z,71.22
2018-01-02T07:00:56.316Z,71.34
2018-01-02T07:03:26.135Z,71.40
2018-01-02T07:05:55.912Z,71.76
2018-01-02T07:08:25.695Z,72.01
2018-01-02T07:10:55.701Z,71.97
2018-01-02T07:13:25.496Z,71.69
2018-01-02T07:15:55.284Z,71.30
2018-01-02T07:18:25.053Z,71.65
2018-01-02T07:20:54.865Z,72.30
2018-01-02T07:23:24.653Z,71.75
2018-01-02T07:25:54.457Z,71.09
2018-01-02T07:28:24.311Z,71.18
2018-01-02T07:30:54.441Z,71.44
2018-01-02T07:33:24.258Z,71.80
2018-01-02T07:35:54.535Z,70.36
2018-01-02T07:38:24.362Z,71.15
2018-01-02T07:40:54.481Z,70.68
2018-01-02T07:43:24.287Z,71.04
2018-01-02T07:45:54.084Z,70.80
2018-01-02T07:48:23.885Z,70.51
2018-01-02T07:50:53.667Z,70.74
2018-01-02T07:53:23.448Z,71.13
2018-01-02T07:55:53.269Z,71.01
2018-01-02T07:58:23.223Z,70.57
2018-01-02T08:00:53.060Z,70.75
2018-01-02T08:03:23.501Z,71.07
2018-01-02T08:05:53.320Z,70.40
2018-01-02T08:08:24.065Z,70.96
2018-01-02T08:10:53.850Z,70.31
2018-01-02T08:13:23.634Z,70.35
2018-01-02T08:15:53.415Z,69.68
2018-01-02T08:18:23.194Z,69.30
2018-01-02T08:20:53.008Z,69.73
2018-01-02T08:23:22.784Z,69.85
2018-01-02T08:25:52.637Z,69.43
2018-01-02T08:28:22.450Z,69.95
2018-01-02T08:30:52.261Z,69.47
2018-01-02T08:33:22.843Z,69.00
2018-01-02T08:35:52.624Z,69.21
2018-01-02T08:38:22.464Z,70.20
2018-01-02T08:40:52.271Z,69.11
2018-01-02T08:43:22.336Z,68.88
2018-01-02T08:45:52.163Z,68.25
2018-01-02T08:48:23.146Z,68.43
2018-01-02T08:50:52.947Z,68.05
2018-01-02T08:53:22.733Z,67.43
2018-01-02T08:55:52.513Z,66.93
2018-01-02T08:58:22.323Z,65.87
2018-01-02T09:00:52.177Z,65.65
2018-01-02T09:03:22.546Z,65.09
2018-01-02T09:05:52.361Z,64.88
2018-01-02T09:08:22.163Z,65.61
2018-01-02T09:10:51.938Z,64.71
2018-01-02T09:13:31.197Z,65.80
2018-01-02T09:16:00.973Z,68.60
2018-01-02T09:18:30.782Z,71.24
2018-01-02T09:21:00.548Z,72.20
2018-01-02T09:23:30.431Z,71.80
2018-01-02T09:26:00.205Z,72.79
2018-01-02T09:28:29.997Z,73.65
2018-01-02T09:30:59.791Z,73.81
2018-01-02T09:33:30.371Z,73.17
2018-01-02T09:36:00.336Z,72.67
2018-01-02T09:38:30.155Z,72.58
2018-01-02T09:40:59.957Z,72.56
2018-01-02T09:43:29.800Z,72.66
2018-01-02T09:45:59.580Z,72.48
2018-01-02T09:48:29.378Z,69.97
2018-01-02T09:50:59.202Z,68.88
2018-01-02T09:53:28.966Z,65.73
2018-01-02T09:55:58.749Z,64.56
2018-01-02T09:58:28.663Z,63.41
2018-01-02T10:00:58.460Z,62.99
2018-01-02T10:03:28.315Z,61.91
2018-01-02T10:05:58.093Z,62.92
2018-01-02T10:08:27.905Z,63.32
2018-01-02T10:10:57.991Z,64.28
2018-01-02T10:13:27.779Z,64.66
2018-01-02T10:15:57.572Z,63.76
2018-01-02T10:18:27.384Z,64.12
2018-01-02T10:20:57.223Z,64.97
2018-01-02T10:23:27.165Z,64.91
2018-01-02T10:25:56.995Z,65.68
2018-01-02T10:28:26.806Z,66.16
2018-01-02T10:31:00.217Z,65.52
2018-01-02T10:33:30.033Z,65.62
2018-01-02T10:35:59.816Z,65.55
2018-01-02T10:38:29.697Z,65.48
2018-01-02T10:40:59.486Z,65.58
2018-01-02T10:43:29.303Z,64.96
2018-01-02T10:45:59.104Z,64.71
2018-01-02T10:48:28.925Z,65.04
2018-01-02T10:50:58.717Z,64.39
2018-01-02T10:53:28.508Z,64.67
2018-01-02T10:55:59.409Z,63.61
2018-01-02T10:58:29.204Z,64.79
2018-01-02T11:01:01.898Z,66.57
2018-01-02T11:03:31.840Z,68.38
2018-01-02T11:06:01.633Z,73.57
2018-01-02T11:08:31.733Z,76.61
2018-01-02T11:11:06.970Z,79.47
2018-01-02T11:13:46.229Z,79.95
2018-01-02T11:16:16.042Z,80.23
2018-01-02T11:18:45.849Z,75.42
2018-01-02T11:21:15.640Z,75.51
2018-01-02T11:23:45.432Z,74.16
2018-01-02T11:26:15.209Z,74.46
2018-01-02T11:28:45.004Z,75.45
2018-01-02T11:31:14.834Z,75.89
2018-01-02T11:33:44.793Z,76.27
2018-01-02T11:36:14.565Z,76.76
2018-01-02T11:38:44.384Z,77.34
2018-01-02T11:41:14.173Z,77.18
2018-01-02T11:43:44.077Z,76.96
2018-01-02T11:46:13.856Z,77.79
2018-01-02T11:48:43.667Z,77.23
2018-01-02T11:51:13.460Z,77.94
2018-01-02T11:53:43.264Z,77.79
2018-01-02T11:56:13.057Z,77.89
2018-01-02T11:58:42.914Z,78.49
2018-01-02T12:01:12.707Z,78.13
2018-01-02T12:03:42.530Z,77.68
2018-01-02T12:06:12.439Z,77.13
2018-01-02T12:08:43.700Z,77.58
2018-01-02T12:11:13.512Z,77.26
2018-01-02T12:13:43.289Z,76.43
2018-01-02T12:16:13.152Z,77.20
2018-01-02T12:18:42.971Z,75.93
2018-01-02T12:21:12.771Z,76.00
2018-01-02T12:23:42.568Z,76.20
2018-01-02T12:26:12.368Z,76.19
2018-01-02T12:28:42.196Z,76.19
2018-01-02T12:31:11.969Z,76.28
2018-01-02T12:33:41.563Z,76.64
2018-01-02T12:36:11.398Z,76.04
2018-01-02T12:38:41.232Z,76.08
2018-01-02T12:41:11.033Z,76.38
2018-01-02T12:43:40.889Z,77.81
2018-01-02T12:46:10.670Z,77.79
2018-01-02T12:48:40.468Z,77.95
2018-01-02T12:51:11.113Z,78.54
2018-01-02T12:53:40.925Z,79.16
2018-01-02T12:56:10.718Z,80.41
2018-01-02T12:58:40.545Z,81.30
2018-01-02T13:01:10.174Z,83.68
2018-01-02T13:03:39.988Z,83.27
2018-01-02T13:06:09.874Z,84.90
2018-01-02T13:08:39.682Z,84.95
2018-01-02T13:11:09.602Z,84.25
2018-01-02T13:13:39.376Z,85.11
2018-01-02T13:16:09.240Z,85.73
2018-01-02T13:18:39.105Z,86.34
2018-01-02T13:21:08.897Z,87.63
2018-01-02T13:23:38.746Z,86.14
2018-01-02T13:26:08.569Z,86.33
2018-01-02T13:28:38.402Z,86.09
2018-01-02T13:31:08.305Z,87.58
2018-01-02T13:33:38.163Z,85.73
2018-01-02T13:36:07.956Z,86.18
2018-01-02T13:38:37.793Z,85.12
2018-01-02T13:41:07.585Z,85.07
2018-01-02T13:43:37.383Z,85.45
2018-01-02T13:46:07.178Z,85.53
2018-01-02T13:48:36.970Z,86.82
2018-01-02T13:51:06.831Z,86.38
2018-01-02T13:53:37.548Z,86.87
2018-01-02T13:56:07.406Z,86.59
2018-01-02T13:58:37.230Z,87.76
2018-01-02T14:01:07.178Z,88.06
2018-01-02T14:03:36.736Z,88.06
2018-01-02T14:06:06.529Z,87.94
2018-01-02T14:08:36.347Z,88.11
2018-01-02T14:11:06.297Z,88.71
2018-01-02T14:13:36.123Z,88.78
2018-01-02T14:16:05.962Z,88.33
2018-01-02T14:18:35.863Z,88.91
2018-01-02T14:21:05.630Z,87.92
2018-01-02T14:23:36.285Z,88.17
2018-01-02T14:26:06.079Z,88.36
2018-01-02T14:28:35.873Z,87.55
2018-01-02T14:31:05.679Z,88.12
2018-01-02T14:33:35.477Z,88.34
2018-01-02T14:36:05.290Z,87.97
2018-01-02T14:38:35.136Z,89.18
2018-01-02T14:41:05.012Z,88.94
2018-01-02T14:43:34.868Z,89.26
2018-01-02T14:46:04.688Z,88.53
2018-01-02T14:48:35.219Z,88.78
2018-01-02T14:51:05.067Z,89.06
2018-01-02T14:53:34.872Z,88.95
2018-01-02T14:56:04.917Z,88.86
2018-01-02T14:58:34.819Z,88.70
2018-01-02T15:01:04.744Z,88.74
2018-01-02T15:03:34.519Z,88.99
2018-01-02T15:06:04.429Z,89.10
2018-01-02T15:08:34.285Z,89.27
2018-01-02T15:11:04.144Z,89.71
2018-01-02T15:13:34.509Z,89.57
2018-01-02T15:16:04.455Z,89.77
2018-01-02T15:18:34.291Z,89.49
2018-01-02T15:21:04.087Z,89.83
2018-01-02T15:23:34.012Z,89.52
2018-01-02T15:26:03.894Z,89.92
2018-01-02T15:28:33.738Z,89.60
2018-01-02T15:31:03.534Z,89.61
2018-01-02T15:33:33.399Z,89.21
2018-01-02T15:36:03.750Z,89.86
2018-01-02T15:38:33.542Z,90.15
2018-01-02T15:41:03.360Z,90.50
2018-01-02T15:43:33.148Z,90.57
2018-01-02T15:46:03.015Z,90.88
2018-01-02T15:48:32.800Z,90.76
2018-01-02T15:51:06.784Z,90.84
2018-01-02T15:53:36.656Z,90.62
2018-01-02T15:56:06.595Z,90.88
2018-01-02T15:58:36.434Z,90.76
2018-01-02T16:01:06.274Z,90.93
2018-01-02T16:03:36.083Z,91.35
2018-01-02T16:06:05.972Z,91.27
2018-01-02T16:08:35.781Z,91.42
2018-01-02T16:11:05.579Z,91.71
2018-01-02T16:13:35.474Z,91.98
2018-01-02T16:16:05.297Z,91.57
2018-01-02T16:18:35.230Z,91.97
2018-01-02T16:21:04.980Z,91.72
2018-01-02T16:23:34.778Z,92.29
2018-01-02T16:26:04.572Z,92.04
2018-01-02T16:28:34.417Z,91.93
2018-01-02T16:31:04.257Z,91.62
2018-01-02T16:33:34.319Z,91.49
2018-01-02T16:36:04.116Z,91.30
2018-01-02T16:38:33.978Z,91.30
2018-01-02T16:41:04.142Z,91.31
2018-01-02T16:43:34.009Z,91.05
2018-01-02T16:46:03.882Z,91.16
2018-01-02T16:48:33.716Z,91.15
2018-01-02T16:51:03.585Z,90.46
2018-01-02T16:53:33.510Z,90.75
2018-01-02T16:56:03.774Z,90.81
2018-01-02T16:58:33.622Z,90.84
2018-01-02T17:01:03.526Z,90.44
2018-01-02T17:03:33.723Z,89.90
2018-01-02T17:06:04.245Z,89.51
2018-01-02T17:08:34.201Z,89.96
2018-01-02T17:11:04.132Z,89.18
2018-01-02T17:13:33.994Z,88.83
2018-01-02T17:16:03.821Z,88.95
2018-01-02T17:18:33.678Z,89.43
2018-01-02T17:21:03.752Z,89.64
2018-01-02T17:23:33.580Z,88.88
2018-01-02T17:26:03.414Z,88.56
2018-01-02T17:28:33.237Z,88.27
2018-01-02T17:31:02.789Z,88.41
2018-01-02T17:33:32.608Z,87.24
2018-01-02T17:36:02.482Z,87.80
2018-01-02T17:38:32.279Z,87.98
2018-01-02T17:41:02.121Z,87.52
2018-01-02T17:43:31.954Z,87.38
2018-01-02T17:46:10.597Z,87.45
2018-01-02T17:48:51.956Z,88.88
2018-01-02T17:51:21.891Z,90.23
2018-01-02T17:53:51.960Z,88.34
2018-01-02T17:56:21.780Z,87.93
2018-01-02T17:58:51.598Z,88.18
2018-01-02T18:01:22.510Z,88.45
2018-01-02T18:04:01.286Z,89.53
2018-01-02T18:06:51.820Z,89.52
2018-01-02T18:09:22.103Z,89.50
2018-01-02T18:11:53.875Z,89.64
2018-01-02T18:14:24.257Z,90.24
2018-01-02T18:16:54.374Z,90.44
2018-01-02T18:19:24.173Z,90.92
2018-01-02T18:21:54.025Z,91.14
2018-01-02T18:24:24.640Z,90.61
2018-01-02T18:26:54.442Z,90.47
2018-01-02T18:29:24.317Z,89.96
2018-01-02T18:31:54.117Z,90.13
2018-01-02T18:34:24.098Z,89.67
2018-01-02T18:36:53.970Z,89.42
2018-01-02T18:39:23.813Z,87.37
2018-01-02T18:41:54.073Z,87.87
2018-01-02T18:44:23.948Z,88.04
2018-01-02T18:46:53.577Z,85.86
2018-01-02T18:49:23.386Z,85.64
2018-01-02T18:51:53.172Z,85.50
2018-01-02T18:54:23.951Z,85.71
2018-01-02T18:56:53.769Z,85.51
2018-01-02T18:59:23.835Z,86.21
2018-01-02T19:01:53.676Z,86.03
2018-01-02T19:04:23.568Z,85.59
2018-01-02T19:06:53.691Z,85.58
2018-01-02T19:09:23.470Z,86.05
2018-01-02T19:11:53.302Z,85.55
2018-01-02T19:14:23.048Z,86.04
2018-01-02T19:16:52.868Z,85.71
2018-01-02T19:19:22.672Z,86.03
2018-01-02T19:21:52.633Z,86.60
2018-01-02T19:24:22.431Z,86.98
2018-01-02T19:26:52.221Z,86.87
2018-01-02T19:29:22.076Z,87.60
2018-01-02T19:31:51.861Z,87.96
2018-01-02T19:34:21.472Z,87.71
2018-01-02T19:36:51.798Z,88.09
2018-01-02T19:39:29.814Z,88.52
2018-01-02T19:42:04.396Z,90.41
2018-01-02T19:44:34.350Z,88.43
2018-01-02T19:47:04.269Z,89.23
2018-01-02T19:49:34.601Z,89.35
2018-01-02T19:52:04.503Z,90.59
2018-01-02T19:54:34.423Z,90.86
2018-01-02T19:57:04.236Z,91.17
2018-01-02T19:59:34.037Z,91.54
2018-01-02T20:02:03.818Z,90.84
2018-01-02T20:04:34.520Z,90.43
2018-01-02T20:07:04.369Z,89.66
2018-01-02T20:09:34.434Z,88.83
2018-01-02T20:12:04.236Z,89.12
2018-01-02T20:14:34.125Z,88.96
2018-01-02T20:17:03.956Z,87.79
2018-01-02T20:19:33.970Z,88.12
2018-01-02T20:22:04.066Z,88.49
2018-01-02T20:24:33.880Z,88.03
2018-01-02T20:27:03.805Z,88.25
2018-01-02T20:29:33.793Z,88.26
2018-01-02T20:32:03.839Z,88.29
2018-01-02T20:34:33.771Z,88.51
2018-01-02T20:37:03.677Z,87.98
2018-01-02T20:39:33.518Z,88.11
2018-01-02T20:42:03.387Z,87.80
2018-01-02T20:44:33.201Z,88.13
2018-01-02T20:47:03.092Z,87.94
2018-01-02T20:49:32.994Z,87.98
2018-01-02T20:52:02.855Z,88.27
2018-01-02T20:54:32.672Z,88.54
2018-01-02T20:57:02.539Z,88.51
2018-01-02T20:59:32.361Z,88.97
2018-01-02T21:02:02.174Z,88.65
2018-01-02T21:04:32.428Z,88.37
2018-01-02T21:07:02.450Z,88.62
2018-01-02T21:09:32.262Z,88.71
2018-01-02T21:12:02.418Z,89.35
2018-01-02T21:14:32.225Z,89.82
2018-01-02T21:17:09.734Z,90.26
2018-01-02T21:19:41.326Z,90.86
2018-01-02T21:22:11.151Z,91.03
2018-01-02T21:24:40.996Z,91.01
2018-01-02T21:27:10.801Z,90.56
2018-01-02T21:29:40.671Z,90.80
2018-01-02T21:32:11.399Z,91.08
2018-01-02T21:34:41.243Z,90.94
2018-01-02T21:37:11.089Z,90.78
2018-01-02T21:39:45.422Z,90.91
2018-01-02T21:42:15.256Z,90.66
2018-01-02T21:44:45.095Z,90.87
2018-01-02T21:47:14.902Z,90.78
2018-01-02T21:49:45.482Z,91.06
2018-01-02T21:52:15.332Z,90.62
2018-01-02T21:54:45.105Z,91.06
2018-01-02T21:57:14.915Z,90.77
2018-01-02T21:59:51.697Z,90.79
2018-01-02T22:02:21.710Z,91.37
2018-01-02T22:07:27.943Z,92.80
2018-01-02T22:09:57.868Z,93.61
2018-01-02T22:12:27.717Z,93.56
2018-01-02T22:14:57.658Z,94.00
2018-01-02T22:17:27.557Z,95.45
2018-01-02T22:19:57.504Z,96.18
2018-01-02T22:22:27.121Z,96.43
2018-01-02T22:24:56.930Z,96.83
2018-01-02T22:27:26.794Z,97.25
2018-01-02T22:29:56.610Z,97.69
2018-01-02T22:32:26.712Z,98.17
2018-01-02T22:34:56.382Z,98.66
2018-01-02T22:37:26.214Z,99.03
2018-01-02T22:39:56.145Z,99.49
2018-01-02T22:42:26.056Z,99.83
2018-01-02T22:44:55.939Z,100.00
2018-01-02T22:47:25.725Z,100.00
2018-01-02T22:49:55.619Z,100.00
2018-01-02T22:52:25.567Z,100.00
2018-01-02T22:54:55.491Z,100.00
2018-01-02T22:57:25.364Z,100.00
2018-01-02T22:59:55.212Z,100.00
2018-01-02T23:02:25.158Z,100.00
2018-01-02T23:04:55.020Z,100.00
2018-01-02T23:07:24.919Z,100.00
2018-01-02T23:09:54.776Z,100.00
2018-01-02T23:12:24.657Z,100.00
2018-01-02T23:14:54.577Z,100.00
2018-01-02T23:17:24.416Z,100.00
2018-01-02T23:19:54.297Z,100.00
2018-01-02T23:22:24.207Z,100.00
2018-01-02T23:24:54.148Z,100.00
2018-01-02T23:27:24.054Z,100.00
2018-01-02T23:29:53.928Z,100.00
2018-01-02T23:34:59.469Z,100.00
2018-01-02T23:37:29.733Z,100.00
2018-01-02T23:39:59.679Z,100.00
2018-01-02T23:45:05.011Z,100.00
2018-01-02T23:47:35.070Z,100.00
2018-01-02T23:50:08.568Z,100.00
2018-01-02T23:55:12.663Z,100.00
2018-01-02T23:57:42.605Z,100.00
